createdAt,value
2023-04-12T00:03:18.906Z,34.9
2023-04-12T00:09:11.084Z,34.9
2023-04-12T00:15:02.674Z,34.8
2023-04-12T00:20:39.630Z,34.8
2023-04-12T00:26:30.524Z,34.8
2023-04-12T00:32:22.203Z,34.8
2023-04-12T00:38:13.851Z,34.8
2023-04-12T00:43:49.704Z,34.7
2023-04-12T00:49:10.624Z,34.7
2023-04-12T00:54:47.057Z,34.7
2023-04-12T01:00:37.544Z,34.6
2023-04-12T01:06:15.347Z,34.8
2023-04-12T01:12:07.318Z,35.1
2023-04-12T01:23:34.041Z,36.2
2023-04-12T01:29:09.636Z,36.8
2023-04-12T01:34:30.715Z,37.4
2023-04-12T01:40:06.873Z,38.2
2023-04-12T01:45:42.919Z,38.9
2023-04-12T01:51:18.722Z,39.6
2023-04-12T01:56:56.834Z,40.4
2023-04-12T02:02:33.759Z,40.9
2023-04-12T02:08:11.688Z,41.2
2023-04-12T02:13:47.604Z,41.3
2023-04-12T02:19:24.063Z,41.5
2023-04-12T02:24:59.157Z,41.6
2023-04-12T02:30:34.941Z,41.8
2023-04-12T02:35:40.154Z,41.8
2023-04-12T02:41:16.055Z,41.8
2023-04-12T02:46:37.719Z,41.8
2023-04-12T02:51:59.440Z,41.8
2023-04-12T02:57:35.775Z,41.8
2023-04-12T03:03:13.122Z,41.8
2023-04-12T03:08:49.888Z,41.8
2023-04-12T03:14:25.736Z,41.7
2023-04-12T03:20:02.395Z,41.7
2023-04-12T03:25:38.849Z,41.6
2023-04-12T03:31:14.329Z,41.6
2023-04-12T03:36:50.759Z,41.6
2023-04-12T03:42:41.709Z,41.6
2023-04-12T03:48:06.132Z,41.6
2023-04-12T03:53:54.726Z,41.5
2023-04-12T03:59:31.427Z,41.5
2023-04-12T04:05:10.225Z,41.4
2023-04-12T04:10:47.076Z,41.4
2023-04-12T04:16:23.546Z,41.4
2023-04-12T04:21:59.215Z,41.4
2023-04-12T04:27:20.198Z,41.4
2023-04-12T04:32:56.384Z,41.3
2023-04-12T04:38:32.252Z,41.3
2023-04-12T04:44:08.295Z,41.3
2023-04-12T04:49:44.164Z,41.2
2023-04-12T04:55:23.810Z,41.2
2023-04-12T05:00:59.954Z,41.1
2023-04-12T05:06:39.158Z,41.1
2023-04-12T05:12:30.605Z,41.1
2023-04-12T05:18:28.669Z,41.1
2023-04-12T05:24:05.263Z,41
2023-04-12T05:29:40.707Z,41
2023-04-12T05:35:16.459Z,40.9
2023-04-12T05:40:51.968Z,40.9
2023-04-12T05:46:28.592Z,40.8
2023-04-12T05:52:14.286Z,40.8
2023-04-12T05:57:50.445Z,40.8
2023-04-12T06:03:28.239Z,40.8
2023-04-12T06:09:19.992Z,40.7
2023-04-12T06:14:55.401Z,40.7
2023-04-12T06:20:31.645Z,40.6
2023-04-12T06:26:08.042Z,40.6
2023-04-12T06:31:43.857Z,40.6
2023-04-12T06:37:20.571Z,40.5
2023-04-12T06:42:56.532Z,40.4
2023-04-12T06:48:33.207Z,40.4
2023-04-12T06:54:10.124Z,40.4
2023-04-12T06:59:16.323Z,40.3
2023-04-12T07:04:54.911Z,40.3
2023-04-12T07:10:25.320Z,40.2
2023-04-12T07:15:56.282Z,40.2
2023-04-12T07:21:33.612Z,40.1
2023-04-12T07:26:53.852Z,39.8
2023-04-12T07:32:30.465Z,51.3
2023-04-12T07:38:23.475Z,48.1
2023-04-12T07:44:01.413Z,46.3
2023-04-12T07:49:25.887Z,45.1
2023-04-12T07:55:02.425Z,55.4
2023-04-12T08:00:40.517Z,54.3
2023-04-12T08:06:21.901Z,53.2
2023-04-12T08:11:58.178Z,52
2023-04-12T08:17:35.039Z,53.9
2023-04-12T08:23:11.296Z,58.4
2023-04-12T08:28:47.875Z,60.3
2023-04-12T08:34:24.819Z,61.4
2023-04-12T08:40:32.286Z,62.2
2023-04-12T08:46:25.162Z,63
2023-04-12T08:52:16.835Z,63.6
2023-04-12T08:58:09.230Z,64.2
2023-04-12T09:04:05.356Z,64.8
2023-04-12T09:09:41.435Z,65.3
2023-04-12T09:15:21.006Z,65.6
2023-04-12T09:20:57.974Z,66.3
2023-04-12T09:26:49.003Z,66.9
2023-04-12T09:32:40.969Z,67.5
2023-04-12T09:38:18.356Z,67.8
2023-04-12T09:44:27.937Z,68.3
2023-04-12T09:50:20.676Z,68.8
2023-04-12T09:56:13.183Z,69.1
2023-04-12T10:02:07.508Z,69.3
2023-04-12T10:08:04.532Z,69.7
2023-04-12T10:13:41.621Z,70.1
2023-04-12T10:19:36.590Z,70.6
2023-04-12T10:25:31.752Z,71.3
2023-04-12T10:31:23.859Z,71.3
2023-04-12T10:37:17.105Z,71.3
2023-04-12T10:43:09.038Z,71.4
2023-04-12T10:49:00.772Z,71.8
2023-04-12T10:54:52.500Z,71.9
2023-04-12T11:00:53.602Z,72.1
2023-04-12T11:06:45.440Z,72.3
2023-04-12T11:12:37.447Z,72.2
2023-04-12T11:18:30.555Z,72.3
2023-04-12T11:24:22.928Z,72.3
2023-04-12T11:30:11.456Z,72.4
2023-04-12T11:36:04.170Z,72.1
2023-04-12T11:41:57.843Z,72.4
2023-04-12T11:48:03.998Z,71.9
2023-04-12T11:54:09.170Z,72.1
2023-04-12T11:59:45.791Z,72.1
2023-04-12T12:05:58.437Z,72.3
2023-04-12T12:12:14.320Z,71.8
2023-04-12T12:18:06.844Z,70.2
2023-04-12T12:23:58.749Z,70.8
2023-04-12T12:30:06.625Z,70.8
2023-04-12T12:36:16.349Z,70.6
2023-04-12T12:42:12.780Z,70.2
2023-04-12T12:48:29.280Z,69.9
2023-04-12T12:54:36.504Z,69.6
2023-04-12T13:00:31.686Z,69.1
2023-04-12T13:06:26.562Z,68.7
2023-04-12T13:12:19.444Z,68.2
2023-04-12T13:18:24.308Z,67.7
2023-04-12T13:24:18.266Z,67
2023-04-12T13:30:10.603Z,66.4
2023-04-12T13:35:50.242Z,65.8
2023-04-12T13:41:44.331Z,65.2
2023-04-12T13:47:36.728Z,64.4
2023-04-12T13:53:29.887Z,63.7
2023-04-12T13:59:22.102Z,62.8
2023-04-12T14:05:17.384Z,62
2023-04-12T14:11:09.450Z,61.2
2023-04-12T14:16:46.675Z,60.3
2023-04-12T14:22:39.434Z,58.4
2023-04-12T14:28:31.515Z,54.8
2023-04-12T14:34:25.492Z,52.9
2023-04-12T14:40:19.278Z,51.7
2023-04-12T14:46:12.261Z,50.9
2023-04-12T14:52:03.721Z,50.2
2023-04-12T14:58:03.551Z,49.6
2023-04-12T15:03:57.660Z,49.3
2023-04-12T15:09:50.291Z,48.9
2023-04-12T15:15:45.297Z,48.6
2023-04-12T15:21:46.769Z,48.4
2023-04-12T15:27:39.790Z,48.2
2023-04-12T15:33:31.908Z,47.9
2023-04-12T15:39:12.817Z,47.7
2023-04-12T15:45:04.018Z,47.4
2023-04-12T15:51:06.980Z,47.2
2023-04-12T15:56:58.502Z,47
2023-04-12T16:02:52.870Z,46.8
2023-04-12T16:08:46.839Z,46.6
2023-04-12T16:14:22.606Z,46.4
2023-04-12T16:20:14.631Z,46.2
2023-04-12T16:25:50.639Z,46.1
2023-04-12T16:31:43.611Z,45.9
2023-04-12T16:37:22.019Z,45.8
2023-04-12T16:43:14.119Z,45.6
2023-04-12T16:49:06.336Z,45.4
2023-04-12T16:55:00.886Z,45.2
2023-04-12T17:00:52.449Z,44.8
2023-04-12T17:06:45.318Z,44.6
2023-04-12T17:12:37.497Z,44.3
2023-04-12T17:18:29.637Z,44.1
2023-04-12T17:24:24.394Z,44
2023-04-12T17:30:16.313Z,43.9
2023-04-12T17:35:53.344Z,43.8
2023-04-12T17:41:48.226Z,43.8
2023-04-12T17:47:41.039Z,43.7
2023-04-12T17:53:33.063Z,43.6
2023-04-12T17:59:24.225Z,43.4
2023-04-12T18:05:18.985Z,43.4
2023-04-12T18:11:11.133Z,43.3
2023-04-12T18:17:03.231Z,43.3
2023-04-12T18:22:55.365Z,43.1
2023-04-12T18:28:49.677Z,43
2023-04-12T18:34:42.116Z,42.8
2023-04-12T18:40:33.974Z,42.5
2023-04-12T18:46:26.078Z,42.6
2023-04-12T18:52:18.803Z,42.6
2023-04-12T18:57:57.036Z,42.5
2023-04-12T19:04:11.601Z,42.4
2023-04-12T19:10:05.593Z,42.2
2023-04-12T19:15:58.573Z,41.8
2023-04-12T19:21:51.599Z,41.8
2023-04-12T19:27:47.656Z,41.8
2023-04-12T19:33:41.547Z,41.8
2023-04-12T19:39:37.625Z,41.8
2023-04-12T19:45:33.098Z,41.8
2023-04-12T19:51:27.302Z,41.6
2023-04-12T19:57:20.428Z,41.6
2023-04-12T20:03:14.194Z,41.5
2023-04-12T20:09:07.442Z,41.4
2023-04-12T20:15:00.188Z,41.4
2023-04-12T20:20:38.316Z,41.3
2023-04-12T20:26:30.081Z,41.2
2023-04-12T20:32:22.590Z,41.2
2023-04-12T20:38:14.430Z,41.1
2023-04-12T20:44:06.733Z,41
2023-04-12T20:49:59.958Z,40.9
2023-04-12T20:55:52.597Z,40.9
2023-04-12T21:14:54.111Z,40.7
2023-04-12T21:20:45.348Z,40.6
2023-04-12T21:26:36.357Z,40.6
2023-04-12T21:32:28.264Z,40.5
2023-04-12T21:38:19.709Z,40.4
2023-04-12T21:44:11.249Z,40.4
2023-04-12T21:50:03.369Z,40.3
2023-04-12T21:55:58.275Z,40.3
2023-04-12T22:01:52.296Z,40.2
2023-04-12T22:07:42.133Z,40.2
2023-04-12T22:13:18.088Z,40.1
2023-04-12T22:19:10.070Z,40.1
2023-04-12T22:24:46.196Z,40
2023-04-12T22:30:22.989Z,39.9
2023-04-12T22:36:13.076Z,39.8
2023-04-12T22:42:05.310Z,39.8
2023-04-12T22:47:56.896Z,39.8
2023-04-12T22:53:47.959Z,39.7
2023-04-12T22:59:39.856Z,39.6
2023-04-12T23:05:35.862Z,39.6
2023-04-12T23:11:26.508Z,39.5
2023-04-12T23:17:02.805Z,39.4
2023-04-12T23:22:52.478Z,39.4
2023-04-12T23:28:31.039Z,39.4
2023-04-12T23:34:07.824Z,39.3
2023-04-12T23:39:58.791Z,39.3
2023-04-12T23:45:49.445Z,39.2
2023-04-12T23:51:41.307Z,39.1
2023-04-12T23:57:33.458Z,39.1
